ADDS METAR Data INFO
IDs: Format: Raw Decoded Include TAF

Data at: 1532 UTC 18 Jun 2018

METAR for:KOCF (Ocala Rgnl, FL, US)
Text:KOCF 181451Z 00000KT 10SM SCT027 29/23 A3015 RMK AO2 SLP211 T02940233 50000 $
Temperature: 29.4°C ( 85°F)
Dewpoint: 23.3°C ( 74°F) [RH = 70%]
Pressure (altimeter):30.15 inches Hg (1021.1 mb) [Sea level pressure: 1021.1 mb]
Winds:calm
Visibility:10 or more sm (16+ km)
Ceiling:at least 12,000 feet AGL
Clouds: scattered clouds at 2700 feet AGL
QC Flag:SOME DATA ABOVE MAY BE INACCURATE!!!"$" is an indication the sensor requires maintenance.